Time;durP1;ratioP1;P1;durP2;ratioP2;P2;SDS_P1;SDS_P2;PMS_P1;PMS_P2;Temp;Humidity;BMP_temperature;BMP_pressure;BME280_temperature;BME280_humidity;BME280_pressure;Samples;Min_cycle;Max_cycle;Signal;HPM_P1;HPM_P2
2021/07/07 00:01:54;;;;;;;8.98;4.50;;;;;;;23.57;48.87;94630.78;2976850;39;20074;-79
2021/07/07 00:03:56;;;;;;;5.30;3.92;;;;;;;23.60;48.78;94635.66;2972285;39;20078;-80
2021/07/07 00:05:58;;;;;;;6.38;4.18;;;;;;;23.58;48.44;94632.41;2977671;39;20075;-82
2021/07/07 00:07:59;;;;;;;5.90;4.32;;;;;;;23.62;48.35;94627.41;2970724;40;20094;-81
2021/07/07 00:10:04;;;;;;;5.55;3.80;;;;;;;23.58;48.60;94637.75;2977693;39;20317;-81
2021/07/07 00:12:06;;;;;;;5.57;4.30;;;;;;;23.57;48.61;94630.78;2971278;40;20502;-81
2021/07/07 00:14:07;;;;;;;6.05;4.30;;;;;;;23.55;48.59;94630.19;2974687;39;20048;-80
2021/07/07 00:16:10;;;;;;;6.70;4.28;;;;;;;23.49;48.95;94628.50;2965468;40;20112;-80
2021/07/07 00:18:14;;;;;;;6.18;4.47;;;;;;;23.44;49.15;94631.88;2974645;39;20124;-80
2021/07/07 00:20:18;;;;;;;5.70;4.50;;;;;;;23.45;49.23;94630.84;2973566;39;20305;-83
2021/07/07 00:22:20;;;;;;;6.05;4.30;;;;;;;23.47;49.53;94635.97;2975566;39;20047;-80
2021/07/07 00:24:21;;;;;;;5.38;3.92;;;;;;;23.50;49.19;94630.13;2976648;39;20277;-80
2021/07/07 00:26:23;;;;;;;6.82;4.68;;;;;;;23.49;48.76;94625.84;2975636;39;20368;-81
2021/07/07 00:28:25;;;;;;;6.65;4.53;;;;;;;23.53;48.64;94640.31;2966653;40;20080;-80
2021/07/07 00:30:27;;;;;;;6.03;4.03;;;;;;;23.51;48.81;94629.06;2965970;40;20108;-80
2021/07/07 00:32:29;;;;;;;5.28;4.60;;;;;;;23.47;49.22;94630.63;2975086;39;20091;-82
2021/07/07 00:34:31;;;;;;;7.55;4.50;;;;;;;23.39;49.65;94625.66;2976060;39;20136;-80
2021/07/07 00:36:33;;;;;;;4.70;4.20;;;;;;;23.35;49.57;94630.66;2976830;40;20048;-81
2021/07/07 00:38:35;;;;;;;5.97;4.50;;;;;;;23.28;50.37;94622.78;2970919;40;20110;-81
2021/07/07 00:40:36;;;;;;;6.80;4.53;;;;;;;23.28;50.50;94633.50;2967575;40;20061;-80
2021/07/07 00:42:38;;;;;;;5.40;4.85;;;;;;;23.28;50.40;94630.81;2977631;39;20050;-81
2021/07/07 00:44:40;;;;;;;6.45;4.80;;;;;;;23.28;50.77;94628.16;2967558;40;20064;-81
2021/07/07 00:46:45;;;;;;;5.45;4.43;;;;;;;23.28;50.74;94627.34;2973891;39;20056;-80
2021/07/07 00:48:47;;;;;;;6.15;4.90;;;;;;;23.27;50.95;94633.72;2967217;39;20124;-80
2021/07/07 00:50:51;;;;;;;5.18;4.68;;;;;;;23.25;51.11;94625.13;2975833;39;20420;-80
2021/07/07 00:52:56;;;;;;;5.78;4.80;;;;;;;23.23;50.74;94632.56;2958289;40;20144;-81
2021/07/07 00:54:59;;;;;;;7.70;4.70;;;;;;;23.22;50.93;94634.44;2960041;40;20076;-80
2021/07/07 00:57:01;;;;;;;6.47;4.37;;;;;;;23.17;51.30;94638.91;2962819;40;20421;-81
2021/07/07 00:59:04;;;;;;;5.47;4.65;;;;;;;23.17;50.89;94645.03;2980644;39;20078;-79
2021/07/07 01:01:06;;;;;;;6.97;5.13;;;;;;;23.15;51.02;94630.31;2978073;39;20495;-79
2021/07/07 01:03:08;;;;;;;5.88;4.60;;;;;;;23.16;51.41;94631.91;2979802;39;20140;-80
2021/07/07 01:05:12;;;;;;;6.60;5.50;;;;;;;23.16;51.13;94635.38;2976293;39;20109;-80
2021/07/07 01:07:13;;;;;;;7.47;5.00;;;;;;;23.14;51.52;94632.16;2967780;40;20098;-81
2021/07/07 01:09:15;;;;;;;6.25;5.28;;;;;;;23.15;51.43;94633.78;2975967;39;20084;-79
2021/07/07 01:11:17;;;;;;;5.68;5.00;;;;;;;23.14;51.52;94634.00;2965092;40;20149;-80
2021/07/07 01:13:18;;;;;;;6.70;5.15;;;;;;;23.14;51.84;94637.50;2975685;39;20087;-71
2021/07/07 01:15:21;;;;;;;8.35;4.95;;;;;;;23.14;51.46;94642.03;2974687;39;20040;-69
2021/07/07 01:17:24;;;;;;;7.25;4.80;;;;;;;23.15;51.62;94643.66;2973936;39;20065;-69
2021/07/07 01:19:26;;;;;;;7.75;5.15;;;;;;;23.16;51.66;94647.94;2973690;39;20648;-71
2021/07/07 01:21:27;;;;;;;8.18;5.53;;;;;;;23.15;51.55;94641.81;2973066;39;20068;-69
2021/07/07 01:23:30;;;;;;;8.32;5.05;;;;;;;23.19;51.46;94642.94;2962355;40;20140;-69
2021/07/07 01:25:33;;;;;;;5.88;4.53;;;;;;;23.21;51.43;94642.69;2972850;39;20048;-69
2021/07/07 01:27:35;;;;;;;;;;;;;;;23.20;51.88;94633.88;2965669;40;20052;-69
2021/07/07 01:29:37;;;;;;;6.05;4.80;;;;;;;23.16;51.90;94643.41;2965902;40;19952;-70
2021/07/07 01:31:45;;;;;;;7.25;4.80;;;;;;;23.13;51.75;94646.56;2971707;40;20058;-69
2021/07/07 01:33:47;;;;;;;7.72;5.68;;;;;;;23.08;52.29;94641.13;2972785;39;20303;-70
2021/07/07 01:35:49;;;;;;;5.00;4.50;;;;;;;23.06;52.16;94637.91;2966316;40;20117;-70
2021/07/07 01:37:53;;;;;;;6.10;5.50;;;;;;;23.06;52.25;94641.38;2976175;39;20084;-69
2021/07/07 01:39:55;;;;;;;6.03;5.25;;;;;;;23.06;52.43;94635.22;2959927;40;20092;-68
2021/07/07 01:41:56;;;;;;;7.43;5.28;;;;;;;23.09;52.30;94645.41;2974223;39;20425;-69
2021/07/07 01:43:58;;;;;;;6.88;4.82;;;;;;;23.03;52.38;94638.34;2965492;40;20140;-71
2021/07/07 01:46:00;;;;;;;8.68;5.20;;;;;;;22.98;52.37;94643.59;2974369;39;20052;-69
2021/07/07 01:48:02;;;;;;;10.82;5.80;;;;;;;22.94;52.65;94639.75;2975270;39;20156;-73
2021/07/07 01:50:06;;;;;;;7.18;5.15;;;;;;;22.94;52.62;94647.78;2966327;40;20092;-70
2021/07/07 01:52:07;;;;;;;6.90;4.90;;;;;;;22.88;52.94;94646.84;2975336;39;20404;-69
2021/07/07 01:54:10;;;;;;;8.27;5.97;;;;;;;22.86;53.04;94648.94;2974262;39;20052;-68
2021/07/07 01:56:11;;;;;;;9.73;5.72;;;;;;;22.85;53.04;94647.34;2952185;40;20052;-68
2021/07/07 01:58:13;;;;;;;7.70;5.10;;;;;;;22.83;53.32;94649.44;2975496;39;20180;-68
2021/07/07 02:00:38;;;;;;;9.10;5.45;;;;;;;22.26;54.77;94645.59;2966203;40;20080;-69
2021/07/07 02:02:40;;;;;;;8.20;5.00;;;;;;;21.44;56.65;94646.25;2974742;39;20056;-68
2021/07/07 02:04:42;;;;;;;8.38;5.57;;;;;;;20.81;58.30;94647.50;2973296;39;20145;-69
2021/07/07 02:06:43;;;;;;;8.43;5.35;;;;;;;20.45;59.36;94653.59;2966491;40;20101;-69
2021/07/07 02:08:45;;;;;;;7.15;5.57;;;;;;;20.12;60.63;94662.75;2962160;39;20048;-69
2021/07/07 02:10:47;;;;;;;9.02;5.63;;;;;;;19.98;60.78;94659.41;2967489;40;20568;-68
2021/07/07 02:12:49;;;;;;;8.48;5.28;;;;;;;20.14;60.39;94667.84;2974580;40;20319;-69
2021/07/07 02:14:51;;;;;;;12.75;6.00;;;;;;;20.40;59.64;94672.91;2980694;39;20053;-69
2021/07/07 02:16:53;;;;;;;7.55;5.47;;;;;;;20.60;59.02;94671.91;2974937;39;20071;-70
2021/07/07 02:18:55;;;;;;;7.28;5.45;;;;;;;20.78;58.40;94674.56;2977588;39;20067;-68
2021/07/07 02:20:57;;;;;;;7.88;6.65;;;;;;;20.77;59.26;94674.78;2977294;39;20059;-69
2021/07/07 02:22:59;;;;;;;7.38;6.22;;;;;;;20.78;58.99;94676.41;2969728;39;20056;-68
2021/07/07 02:25:12;;;;;;;7.28;6.35;;;;;;;20.62;59.75;94683.16;2972376;40;20386;-82
2021/07/07 02:27:13;;;;;;;8.63;5.85;;;;;;;20.66;59.59;94677.16;2964118;40;20053;-82
2021/07/07 02:29:15;;;;;;;8.85;6.47;;;;;;;20.67;59.73;94677.97;2981476;39;20131;-80
2021/07/07 02:31:17;;;;;;;8.52;6.57;;;;;;;20.74;59.40;94677.91;2970177;40;20509;-80
2021/07/07 02:33:19;;;;;;;8.48;6.18;;;;;;;20.68;59.71;94676.94;2966905;40;20067;-81
2021/07/07 02:35:24;;;;;;;8.63;6.30;;;;;;;20.76;59.43;94681.97;2975596;40;20086;-80
2021/07/07 02:37:26;;;;;;;8.25;6.05;;;;;;;20.96;59.12;94691.56;2977140;39;20408;-81
2021/07/07 02:39:27;;;;;;;9.27;5.80;;;;;;;21.15;58.45;94687.03;2976311;39;20148;-82
2021/07/07 02:41:29;;;;;;;7.28;5.30;;;;;;;21.28;58.13;94692.19;2982008;39;20067;-81
2021/07/07 02:43:31;;;;;;;6.85;5.60;;;;;;;21.40;57.95;94684.22;2979019;39;20087;-81
2021/07/07 02:45:34;;;;;;;8.32;5.80;;;;;;;21.53;57.51;94689.41;2980182;39;20052;-80
2021/07/07 02:47:36;;;;;;;8.25;5.20;;;;;;;21.61;56.94;94689.06;2980937;39;20098;-81
2021/07/07 02:49:38;;;;;;;7.28;5.78;;;;;;;21.72;56.57;94686.66;2969470;40;20137;-81
2021/07/07 02:51:40;;;;;;;7.05;5.32;;;;;;;21.78;56.46;94689.22;2972527;39;20160;-81
2021/07/07 02:53:41;;;;;;;7.97;5.90;;;;;;;21.85;56.41;94686.44;2965547;40;20088;-81
2021/07/07 02:55:44;;;;;;;6.40;5.60;;;;;;;21.90;56.41;94691.94;2973764;40;20109;-80
2021/07/07 02:57:59;;;;;;;6.50;5.50;;;;;;;21.97;55.91;94689.16;2976971;39;20048;-80
2021/07/07 03:00:01;;;;;;;6.72;5.43;;;;;;;22.00;55.77;94686.81;2976974;40;20080;-81
2021/07/07 03:02:03;;;;;;;7.57;5.45;;;;;;;22.01;55.96;94688.44;2976072;39;20140;-80
2021/07/07 03:04:05;;;;;;;9.55;5.95;;;;;;;22.04;56.09;94689.84;2967468;40;20052;-80
2021/07/07 03:06:07;;;;;;;6.97;5.53;;;;;;;22.06;55.50;94688.56;2982628;39;20141;-82
2021/07/07 03:08:11;;;;;;;10.73;5.72;;;;;;;22.10;55.59;94686.25;2975353;40;20052;-81
2021/07/07 03:10:13;;;;;;;7.65;5.13;;;;;;;22.14;55.50;94683.94;2974366;39;20044;-82
2021/07/07 03:12:15;;;;;;;7.68;5.88;;;;;;;22.18;55.33;94688.59;2984628;39;20136;-81
2021/07/07 03:14:17;;;;;;;10.13;5.13;;;;;;;22.23;55.32;94698.59;2971464;39;20408;-82
2021/07/07 03:16:19;;;;;;;8.55;5.03;;;;;;;22.24;55.08;94693.03;2968126;39;20059;-82
2021/07/07 03:18:21;;;;;;;6.50;5.50;;;;;;;22.25;55.07;94688.50;2978687;39;20063;-82
2021/07/07 03:20:23;;;;;;;8.82;6.45;;;;;;;22.15;55.05;94697.03;2981318;39;20052;-82
2021/07/07 03:22:25;;;;;;;8.52;6.63;;;;;;;21.47;56.58;94693.78;2975552;39;20096;-80
2021/07/07 03:24:26;;;;;;;11.38;6.95;;;;;;;21.07;57.89;94704.13;2976759;39;20056;-80
2021/07/07 03:26:28;;;;;;;9.82;6.80;;;;;;;21.12;58.07;94698.13;2967520;39;20082;-81
2021/07/07 03:28:32;;;;;;;13.10;5.57;;;;;;;21.27;57.55;94698.53;2972581;39;20504;-81
2021/07/07 03:30:34;;;;;;;8.70;6.47;;;;;;;21.16;57.44;94696.63;2981438;39;20140;-83
2021/07/07 03:32:36;;;;;;;8.70;6.70;;;;;;;20.94;58.02;94697.09;2976661;39;20516;-79
2021/07/07 03:34:38;;;;;;;11.07;6.95;;;;;;;20.84;58.40;94697.66;2978370;40;20056;-81
2021/07/07 03:36:40;;;;;;;13.95;6.68;;;;;;;20.67;58.79;94699.25;2979773;39;20067;-82
2021/07/07 03:38:41;;;;;;;11.70;6.80;;;;;;;20.72;58.78;94707.41;2971193;39;20064;-80
2021/07/07 03:40:43;;;;;;;8.35;6.68;;;;;;;20.69;58.85;94707.03;2982975;39;20060;-82
2021/07/07 03:42:46;;;;;;;9.23;6.70;;;;;;;20.74;58.82;94713.31;2974420;40;20062;-80
2021/07/07 03:44:48;;;;;;;8.90;6.90;;;;;;;20.73;58.79;94713.53;2971351;40;20059;-80
2021/07/07 03:46:49;;;;;;;14.55;6.93;;;;;;;20.88;58.54;94708.66;2986193;39;20071;-82
2021/07/07 03:48:51;;;;;;;8.25;6.13;;;;;;;21.08;58.04;94713.75;2982256;39;20029;-82
2021/07/07 03:50:53;;;;;;;11.55;6.72;;;;;;;21.28;57.30;94716.16;2971043;39;20149;-80
2021/07/07 03:52:55;;;;;;;9.40;6.82;;;;;;;21.32;56.98;94709.34;2971137;39;20048;-81
2021/07/07 03:54:56;;;;;;;8.32;5.93;;;;;;;21.42;57.03;94714.16;2977881;39;20067;-80
2021/07/07 03:56:58;;;;;;;10.18;6.75;;;;;;;21.51;56.57;94717.31;2982816;39;20342;-81
2021/07/07 03:59:00;;;;;;;8.52;6.85;;;;;;;21.62;56.29;94713.88;2979321;39;20435;-81
2021/07/07 04:01:02;;;;;;;8.48;6.80;;;;;;;21.74;55.85;94716.56;2975914;39;20099;-80
2021/07/07 04:03:06;;;;;;;8.57;6.30;;;;;;;21.70;56.09;94715.41;2976356;39;20056;-80
2021/07/07 04:05:10;;;;;;;7.10;5.85;;;;;;;21.77;55.75;94719.59;2972265;40;20474;-81
2021/07/07 04:07:12;;;;;;;9.05;6.88;;;;;;;21.85;55.99;94715.78;2984042;39;20055;-81
2021/07/07 04:09:13;;;;;;;10.02;6.97;;;;;;;21.90;55.87;94718.59;2970521;40;20517;-84
2021/07/07 04:11:15;;;;;;;8.95;6.55;;;;;;;21.98;55.65;94726.22;2977532;39;20055;-80
2021/07/07 04:13:17;;;;;;;16.80;6.80;;;;;;;21.96;55.68;94723.00;2976608;39;20048;-81
2021/07/07 04:15:20;;;;;;;9.60;7.20;;;;;;;21.87;55.68;94721.69;2974430;39;20060;-85
2021/07/07 04:17:21;;;;;;;9.50;6.33;;;;;;;21.77;55.74;94729.44;2978315;39;20056;-81
2021/07/07 04:19:25;;;;;;;7.47;6.22;;;;;;;21.71;56.08;94730.38;2977054;39;20089;-80
2021/07/07 04:21:26;;;;;;;11.05;6.65;;;;;;;21.62;56.51;94729.88;2977506;39;20663;-80
2021/07/07 04:23:28;;;;;;;8.20;6.90;;;;;;;21.56;56.77;94733.44;2970423;40;20082;-80
2021/07/07 04:25:30;;;;;;;8.43;6.90;;;;;;;21.38;57.01;94736.91;2982508;39;20125;-82
2021/07/07 04:27:31;;;;;;;8.38;7.22;;;;;;;21.27;57.31;94738.50;2972688;40;20085;-82
2021/07/07 04:29:33;;;;;;;9.25;7.28;;;;;;;21.36;57.26;94733.66;2982903;40;20172;-81
2021/07/07 04:31:36;;;;;;;10.02;7.10;;;;;;;21.39;56.94;94741.22;2972856;39;20083;-81
2021/07/07 04:33:38;;;;;;;8.30;6.75;;;;;;;21.53;56.57;94740.06;2979927;39;20144;-82
2021/07/07 04:35:39;;;;;;;12.02;7.60;;;;;;;21.60;56.56;94743.44;2974642;40;20051;-80
2021/07/07 04:37:41;;;;;;;9.48;7.30;;;;;;;21.73;55.89;94737.09;2983136;39;20147;-81
2021/07/07 04:39:43;;;;;;;10.95;6.72;;;;;;;21.47;56.70;94749.75;2976465;39;20121;-70
2021/07/07 04:41:45;;;;;;;11.82;7.80;;;;;;;21.10;57.79;94743.66;2975661;39;20084;-69
2021/07/07 04:43:47;;;;;;;9.88;7.90;;;;;;;20.90;58.55;94745.72;2958862;40;20044;-70
2021/07/07 04:45:49;;;;;;;10.80;7.18;;;;;;;21.07;58.33;94738.75;2959309;40;20429;-69
2021/07/07 04:47:51;;;;;;;10.07;7.43;;;;;;;21.24;57.41;94738.94;2975765;39;20056;-69
2021/07/07 04:49:53;;;;;;;9.50;7.65;;;;;;;21.27;57.58;94747.31;2966934;40;20468;-69
2021/07/07 04:51:55;;;;;;;9.05;7.57;;;;;;;21.50;56.94;94743.16;2966754;40;20161;-69
2021/07/07 04:53:57;;;;;;;10.93;7.95;;;;;;;21.52;56.93;94746.41;2976605;39;20607;-68
2021/07/07 04:55:59;;;;;;;11.65;8.82;;;;;;;21.28;57.39;94746.28;2975906;39;20044;-69
2021/07/07 04:58:01;;;;;;;12.25;8.18;;;;;;;21.41;57.22;94747.97;2975907;39;20123;-70
2021/07/07 05:00:03;;;;;;;9.77;7.00;;;;;;;21.53;56.63;94749.88;2976176;39;20044;-70
2021/07/07 05:02:05;;;;;;;10.77;7.93;;;;;;;21.53;56.42;94755.22;2975264;39;20046;-76
2021/07/07 05:04:07;;;;;;;9.25;7.45;;;;;;;21.40;57.20;94750.84;2968483;40;20092;-83
2021/07/07 05:06:09;;;;;;;12.40;7.70;;;;;;;21.45;56.85;94754.50;2968475;40;20125;-82
2021/07/07 05:08:11;;;;;;;9.13;8.20;;;;;;;21.58;56.50;94755.38;2969408;40;20379;-81
2021/07/07 05:10:14;;;;;;;10.23;7.40;;;;;;;21.44;56.84;94752.84;2968573;40;20295;-83
2021/07/07 05:12:16;;;;;;;8.48;7.45;;;;;;;21.53;56.96;94744.53;2977883;39;20416;-82
2021/07/07 05:14:19;;;;;;;10.07;7.80;;;;;;;21.63;56.63;94748.28;2960915;40;20512;-83
2021/07/07 05:16:21;;;;;;;10.23;7.57;;;;;;;21.88;55.90;94745.47;2968766;40;20059;-83
2021/07/07 05:18:23;;;;;;;9.07;7.70;;;;;;;22.09;55.23;94749.47;2969698;40;20128;-82
2021/07/07 05:20:24;;;;;;;10.80;8.70;;;;;;;22.31;54.53;94751.63;2973570;40;20496;-81
2021/07/07 05:22:27;;;;;;;11.25;7.50;;;;;;;22.48;53.92;94752.56;2968906;40;20085;-82
2021/07/07 05:24:29;;;;;;;11.23;8.10;;;;;;;22.66;53.61;94758.81;2979686;39;20063;-81
2021/07/07 05:26:31;;;;;;;13.20;8.27;;;;;;;22.68;53.14;94756.72;2981840;39;20071;-82
2021/07/07 05:28:33;;;;;;;10.88;7.65;;;;;;;22.79;53.32;94763.91;2981408;39;20110;-83
2021/07/07 05:30:35;;;;;;;11.68;8.07;;;;;;;22.74;53.56;94755.81;2968231;40;20052;-84
2021/07/07 05:32:38;;;;;;;15.23;7.93;;;;;;;22.49;54.42;94762.19;2968578;40;20055;-82
2021/07/07 05:34:40;;;;;;;9.48;7.50;;;;;;;22.49;54.21;94769.38;2976888;40;20364;-83
2021/07/07 05:36:42;;;;;;;9.70;8.40;;;;;;;22.13;55.22;94767.69;2970340;40;20053;-83
2021/07/07 05:38:44;;;;;;;9.88;8.20;;;;;;;22.18;55.18;94765.16;2977411;39;20058;-82
2021/07/07 05:40:46;;;;;;;13.63;7.75;;;;;;;22.29;55.18;94764.38;2969811;40;20056;-82
2021/07/07 05:42:52;;;;;;;12.13;7.93;;;;;;;22.43;54.61;94765.75;2978267;40;20388;-82
2021/07/07 05:44:54;;;;;;;12.10;7.82;;;;;;;22.58;54.15;94762.63;2972044;40;20063;-83
2021/07/07 05:46:56;;;;;;;13.55;7.70;;;;;;;22.57;54.21;94768.22;2967964;40;20053;-83
2021/07/07 05:48:58;;;;;;;15.02;8.57;;;;;;;22.57;54.71;94769.03;2978009;39;20388;-84
2021/07/07 05:51:01;;;;;;;12.93;9.07;;;;;;;22.71;54.06;94766.94;2968262;40;20048;-81
2021/07/07 05:53:03;;;;;;;18.13;9.15;;;;;;;22.23;55.03;94771.44;2964845;40;20059;-83
2021/07/07 05:55:05;;;;;;;13.50;9.00;;;;;;;22.27;55.34;94771.81;2973995;39;20395;-84
2021/07/07 05:57:07;;;;;;;16.40;8.77;;;;;;;22.51;54.65;94769.16;2968431;40;20125;-81
2021/07/07 05:59:09;;;;;;;24.00;10.65;;;;;;;22.86;53.66;94775.28;2967318;40;20287;-82
2021/07/07 06:01:11;;;;;;;13.00;9.15;;;;;;;22.90;53.50;94776.44;2975211;39;20048;-81
2021/07/07 06:03:13;;;;;;;11.50;8.90;;;;;;;22.72;54.34;94779.25;2973757;39;20422;-85
2021/07/07 06:05:15;;;;;;;16.05;8.68;;;;;;;22.85;53.77;94768.34;2967943;40;20064;-82
2021/07/07 06:07:17;;;;;;;16.80;8.07;;;;;;;22.92;53.25;94765.53;2968188;40;20108;-82
2021/07/07 06:09:18;;;;;;;17.42;7.82;;;;;;;23.12;52.74;94762.50;2976215;39;20052;-81
2021/07/07 06:11:20;;;;;;;16.40;7.75;;;;;;;23.36;52.45;94767.78;2977477;40;20420;-83
2021/07/07 06:13:22;;;;;;;13.68;8.30;;;;;;;23.54;52.38;94770.31;2969246;40;20052;-83
2021/07/07 06:15:25;;;;;;;13.50;8.02;;;;;;;23.78;51.28;94768.38;2968286;40;20056;-82
2021/07/07 06:17:26;;;;;;;16.70;7.72;;;;;;;24.02;50.89;94768.25;2980331;39;20051;-81
2021/07/07 06:19:28;;;;;;;10.35;7.00;;;;;;;24.21;50.26;94768.84;2973466;40;20070;-79
2021/07/07 06:21:31;;;;;;;14.43;7.68;;;;;;;24.18;50.68;94770.16;2981683;39;20420;-82
2021/07/07 06:23:33;;;;;;;16.33;8.23;;;;;;;24.37;50.37;94773.41;2967369;40;20096;-70
2021/07/07 06:25:35;;;;;;;13.98;8.65;;;;;;;24.31;50.40;94779.72;2972008;39;20055;-69
2021/07/07 06:27:39;;;;;;;12.00;8.30;;;;;;;23.91;51.14;94775.28;2975465;39;20108;-71
2021/07/07 06:29:42;;;;;;;10.18;7.35;;;;;;;23.99;50.85;94769.56;2971692;39;20078;-69
2021/07/07 06:31:45;;;;;;;13.05;6.82;;;;;;;24.23;50.90;94777.44;2975545;39;20063;-81
2021/07/07 06:33:46;;;;;;;10.93;7.07;;;;;;;24.45;50.48;94775.66;2967630;40;20064;-82
2021/07/07 06:35:48;;;;;;;30.15;8.60;;;;;;;24.39;50.44;94771.25;2964432;40;20306;-85
2021/07/07 06:37:51;;;;;;;33.65;8.35;;;;;;;24.39;50.19;94771.25;2974981;40;20394;-83
2021/07/07 06:39:53;;;;;;;11.30;7.10;;;;;;;24.21;50.71;94768.84;2976708;39;20123;-83
2021/07/07 06:41:54;;;;;;;11.30;6.95;;;;;;;24.46;50.49;94774.63;2982218;39;20051;-82
2021/07/07 06:43:56;;;;;;;12.45;7.18;;;;;;;24.73;49.63;94785.47;2977766;39;20420;-84
2021/07/07 06:45:58;;;;;;;7.82;6.88;;;;;;;24.73;49.62;94773.97;2976525;39;20093;-85
2021/07/07 06:48:00;;;;;;;11.65;6.90;;;;;;;24.73;49.82;94774.75;2976057;39;20052;-83
2021/07/07 06:50:04;;;;;;;23.15;7.57;;;;;;;24.89;49.43;94777.69;2976570;39;20059;-83
2021/07/07 06:52:06;;;;;;;17.25;6.90;;;;;;;24.95;49.51;94774.00;2977502;39;20404;-82
2021/07/07 06:54:08;;;;;;;10.38;6.70;;;;;;;24.88;49.03;94778.72;2968306;40;20076;-83
2021/07/07 06:56:10;;;;;;;29.83;7.63;;;;;;;24.96;48.85;94774.84;2970223;40;20136;-82
2021/07/07 06:58:12;;;;;;;11.02;6.72;;;;;;;24.94;49.40;94775.06;2978382;39;20040;-84
2021/07/07 07:00:16;;;;;;;10.98;7.32;;;;;;;24.68;50.07;94782.75;2978014;39;20432;-84
2021/07/07 07:02:18;;;;;;;7.88;6.68;;;;;;;24.79;49.85;94778.34;2968529;40;20060;-84
2021/07/07 07:04:22;;;;;;;7.88;6.95;;;;;;;24.77;49.99;94776.97;2981824;39;20087;-85
2021/07/07 07:06:24;;;;;;;14.13;6.63;;;;;;;24.82;49.52;94779.72;2981656;39;20199;-83
2021/07/07 07:08:26;;;;;;;12.05;6.57;;;;;;;25.06;49.46;94783.00;2972487;40;20262;-83
2021/07/07 07:10:28;;;;;;;14.02;6.63;;;;;;;25.21;49.02;94780.56;2979733;40;20055;-82
2021/07/07 07:12:30;;;;;;;8.75;6.07;;;;;;;25.29;48.72;94773.94;2979365;40;20081;-82
2021/07/07 07:14:31;;;;;;;10.15;6.07;;;;;;;25.34;48.35;94780.19;2970936;40;20075;-82
2021/07/07 07:16:34;;;;;;;11.63;6.72;;;;;;;25.27;48.65;94776.88;2982049;40;20063;-81
2021/07/07 07:18:36;;;;;;;14.40;6.70;;;;;;;25.19;48.80;94777.28;2972813;40;20108;-82
2021/07/07 07:20:37;;;;;;;8.85;6.65;;;;;;;25.38;48.65;94782.34;2963989;40;20280;-84
2021/07/07 07:22:40;;;;;;;10.68;6.18;;;;;;;25.45;47.84;94775.75;2976662;39;20121;-70
2021/07/07 07:24:42;;;;;;;11.52;6.32;;;;;;;25.62;46.88;94772.19;2974382;39;20047;-70
2021/07/07 07:26:44;;;;;;;9.85;6.95;;;;;;;25.73;47.16;94785.47;2966315;40;20394;-71
2021/07/07 07:28:46;;;;;;;8.27;6.43;;;;;;;25.66;46.83;94776.81;2975735;39;20323;-70
2021/07/07 07:30:48;;;;;;;9.75;5.45;;;;;;;25.48;47.22;94771.75;2965190;40;20051;-71
2021/07/07 07:32:50;;;;;;;11.10;6.60;;;;;;;25.67;47.07;94782.97;2965580;40;20072;-70
2021/07/07 07:34:53;;;;;;;11.80;6.07;;;;;;;25.59;47.22;94781.53;2965771;40;20165;-70
2021/07/07 07:37:00;;;;;;;9.77;5.65;;;;;;;25.56;46.88;94775.88;2966319;40;20048;-70
2021/07/07 07:39:09;;;;;;;8.95;5.40;;;;;;;25.87;46.38;94772.44;2975612;39;20380;-71
2021/07/07 07:41:11;;;;;;;7.78;5.90;;;;;;;25.99;46.26;94771.53;2958056;40;20065;-71
2021/07/07 07:43:12;;;;;;;8.77;5.85;;;;;;;25.82;45.82;94776.97;2966420;40;20040;-70
2021/07/07 07:45:14;;;;;;;9.57;6.78;;;;;;;26.01;45.83;94774.78;2969310;39;20064;-70
2021/07/07 07:47:16;;;;;;;10.80;6.60;;;;;;;26.05;45.15;94770.50;2973022;39;20351;-70
2021/07/07 07:49:38;;;;;;;9.50;5.38;;;;;;;26.28;44.82;94775.53;2966065;40;20029;-70
2021/07/07 07:51:40;;;;;;;13.60;5.88;;;;;;;26.53;44.48;94771.47;2971306;39;20059;-72
2021/07/07 07:53:43;;;;;;;6.22;5.20;;;;;;;26.73;43.18;94777.00;2966350;40;20081;-69
2021/07/07 07:55:45;;;;;;;11.07;5.68;;;;;;;27.00;42.59;94769.94;2975061;39;20089;-72
2021/07/07 07:57:48;;;;;;;6.40;5.32;;;;;;;27.16;41.96;94775.09;2975441;39;20048;-70
2021/07/07 07:59:50;;;;;;;;;;;;;;;27.34;41.30;94781.97;2966379;40;20088;-70
2021/07/07 08:01:52;;;;;;;9.20;4.53;;;;;;;27.45;40.83;94776.59;2974274;39;20008;-69
2021/07/07 08:03:53;;;;;;;6.18;5.18;;;;;;;27.37;41.12;94784.13;2974766;40;20063;-71
2021/07/07 08:05:55;;;;;;;4.50;4.00;;;;;;;27.46;40.03;94783.63;2974482;39;20141;-70
2021/07/07 08:08:01;;;;;;;5.05;4.30;;;;;;;27.51;38.17;94781.78;2974939;39;20066;-72
2021/07/07 08:10:04;;;;;;;6.60;4.53;;;;;;;27.41;38.56;94784.41;2975579;39;20071;-70
2021/07/07 08:12:06;;;;;;;7.60;5.07;;;;;;;27.67;38.90;94782.63;2965847;40;20070;-70
2021/07/07 08:14:07;;;;;;;5.82;4.63;;;;;;;27.75;39.36;94784.81;2965796;40;20129;-70
2021/07/07 08:16:12;;;;;;;7.38;4.60;;;;;;;27.95;39.17;94785.97;2973876;39;20044;-69
2021/07/07 08:18:15;;;;;;;5.70;4.32;;;;;;;28.04;39.12;94788.94;2965554;40;20056;-72
2021/07/07 08:20:17;;;;;;;5.18;4.68;;;;;;;28.01;39.52;94789.44;2974590;39;20060;-70
2021/07/07 08:22:19;;;;;;;7.90;5.63;;;;;;;27.94;39.07;94787.03;2974223;39;20359;-72
2021/07/07 08:24:21;;;;;;;11.85;5.07;;;;;;;27.94;38.94;94787.84;2980663;39;20289;-71
2021/07/07 08:26:23;;;;;;;5.32;4.70;;;;;;;28.02;39.10;94794.59;2981444;39;20095;-70
2021/07/07 08:28:25;;;;;;;6.97;4.53;;;;;;;28.12;38.50;94791.91;2971912;40;20048;-71
2021/07/07 08:30:26;;;;;;;6.63;4.38;;;;;;;28.19;38.67;94791.66;2965081;40;20064;-71
2021/07/07 08:32:28;;;;;;;7.97;4.68;;;;;;;28.27;38.24;94791.13;2973445;39;20131;-70
2021/07/07 08:34:34;;;;;;;5.82;4.55;;;;;;;28.44;38.16;94792.75;2966174;40;20123;-71
2021/07/07 08:36:35;;;;;;;4.50;3.95;;;;;;;28.41;37.29;94793.28;2967714;39;20052;-70
2021/07/07 08:38:37;;;;;;;5.45;4.70;;;;;;;28.45;37.40;94787.09;2968692;39;20351;-68
2021/07/07 08:40:39;;;;;;;6.72;4.70;;;;;;;28.35;37.70;94795.16;2973786;39;20056;-68
2021/07/07 08:42:42;;;;;;;6.65;4.38;;;;;;;28.21;37.48;94794.09;2965699;40;20136;-69
2021/07/07 08:44:44;;;;;;;6.80;4.03;;;;;;;28.32;37.19;94796.50;2961525;40;20048;-70
2021/07/07 08:46:46;;;;;;;8.88;3.80;;;;;;;28.42;36.83;94786.84;2972055;39;20358;-70
2021/07/07 08:48:48;;;;;;;6.00;3.90;;;;;;;28.41;36.62;94799.47;2972718;40;20066;-83
2021/07/07 08:50:53;;;;;;;6.55;4.43;;;;;;;28.25;36.64;94789.78;2960331;40;20061;-82
2021/07/07 08:52:57;;;;;;;8.73;4.68;;;;;;;28.11;36.94;94792.97;2966168;40;20122;-83
2021/07/07 08:54:59;;;;;;;8.90;4.18;;;;;;;28.22;37.03;94793.00;2973814;39;20133;-82
2021/07/07 08:57:07;;;;;;;4.97;4.05;;;;;;;28.18;37.09;94785.47;2979784;40;20411;-83
2021/07/07 08:59:11;;;;;;;4.70;3.90;;;;;;;28.45;36.80;94792.47;2970666;39;20359;-82
2021/07/07 09:01:13;;;;;;;6.38;3.90;;;;;;;28.37;36.41;94791.16;2981310;39;20461;-83
2021/07/07 09:03:15;;;;;;;5.60;3.88;;;;;;;28.53;37.08;94789.28;2972972;39;20082;-83
2021/07/07 09:05:20;;;;;;;7.82;4.18;;;;;;;28.50;36.41;94792.53;2981059;39;20065;-85
2021/07/07 09:07:23;;;;;;;7.00;4.50;;;;;;;28.50;36.42;94786.31;2970026;40;20128;-83
2021/07/07 09:09:39;;;;;;;4.50;3.67;;;;;;;28.53;35.82;94793.88;2976019;39;20096;-83
2021/07/07 09:11:42;;;;;;;5.20;3.88;;;;;;;28.85;35.66;94790.09;2962638;40;20396;-84
2021/07/07 09:13:46;;;;;;;4.68;3.60;;;;;;;28.95;35.22;94792.75;2966704;40;20137;-84
2021/07/07 09:15:48;;;;;;;8.63;3.90;;;;;;;28.97;35.45;94791.41;2975613;39;20063;-82
2021/07/07 09:17:51;;;;;;;8.77;3.83;;;;;;;28.68;35.44;94791.16;2970171;39;20080;-82
2021/07/07 09:19:53;;;;;;;5.47;3.72;;;;;;;28.92;35.67;94787.91;2976734;39;20055;-82
2021/07/07 09:22:00;;;;;;;4.82;3.97;;;;;;;29.08;35.57;94788.69;2979731;39;20133;-82
2021/07/07 09:24:03;;;;;;;7.82;3.85;;;;;;;29.04;35.11;94788.44;2966708;40;20056;-83
2021/07/07 09:26:05;;;;;;;11.02;4.28;;;;;;;29.16;35.45;94788.16;2970468;39;20092;-82
2021/07/07 09:28:27;;;;;;;5.75;3.72;;;;;;;29.18;35.15;94781.41;2968528;40;20402;-83
2021/07/07 09:30:32;;;;;;;4.88;3.90;;;;;;;29.39;35.07;94774.06;2980713;39;20063;-83
2021/07/07 09:32:42;;;;;;;5.47;3.83;;;;;;;29.34;34.89;94784.03;2978279;39;20087;-82
2021/07/07 09:34:47;;;;;;;4.47;3.45;;;;;;;29.54;34.20;94783.97;2976242;39;20059;-84
2021/07/07 09:36:54;;;;;;;4.60;3.65;;;;;;;29.74;34.38;94779.59;2970942;39;21594;-81